Time;durP1;ratioP1;P1;durP2;ratioP2;P2;SDS_P1;SDS_P2;PMS_P1;PMS_P2;Temp;Humidity;BMP_temperature;BMP_pressure;BME280_temperature;BME280_humidity;BME280_pressure;Samples;Min_cycle;Max_cycle;Signal;HPM_P1;HPM_P2
2023/06/05 00:01:15;;;;;;;5.68;2.60;;;;;;;;;;5063642;28;20166;-78
2023/06/05 00:03:43;;;;;;;4.53;2.88;;;;;;;;;;5063148;28;20056;-78
2023/06/05 00:06:10;;;;;;;3.58;2.90;;;;;;;;;;5039852;28;20054;-78
2023/06/05 00:08:36;;;;;;;5.75;2.78;;;;;;;;;;5065651;28;20090;-77
2023/06/05 00:11:02;;;;;;;5.50;2.90;;;;;;;;;;5062102;28;20052;-77
2023/06/05 00:13:28;;;;;;;5.97;2.72;;;;;;;;;;5061864;28;20101;-78
2023/06/05 00:15:54;;;;;;;4.90;2.60;;;;;;;;;;5058722;28;20048;-78
2023/06/05 00:18:21;;;;;;;3.63;2.50;;;;;;;;;;5063227;28;20046;-78
2023/06/05 00:20:47;;;;;;;5.88;2.75;;;;;;;;;;5062215;28;20122;-78
2023/06/05 00:23:13;;;;;;;5.30;2.75;;;;;;;;;;5081384;28;20047;-78
2023/06/05 00:25:39;;;;;;;4.30;3.00;;;;;;;;;;5063131;28;20055;-78
2023/06/05 00:28:05;;;;;;;7.15;3.22;;;;;;;;;;5062481;28;20040;-78
2023/06/05 00:30:32;;;;;;;5.15;2.53;;;;;;;;;;5062254;28;20097;-78
2023/06/05 00:32:58;;;;;;;8.23;2.70;;;;;;;;;;5059156;28;20040;-78
2023/06/05 00:35:24;;;;;;;5.25;2.80;;;;;;;;;;5062351;28;20238;-78
2023/06/05 00:37:50;;;;;;;4.82;2.72;;;;;;;;;;5063408;28;20043;-77
2023/06/05 00:40:16;;;;;;;3.13;2.45;;;;;;;;;;5061950;28;20047;-78
2023/06/05 00:42:42;;;;;;;8.40;2.85;;;;;;;;;;5029582;28;20053;-78
2023/06/05 00:45:08;;;;;;;6.78;2.72;;;;;;;;;;5063649;28;20067;-77
2023/06/05 00:47:35;;;;;;;4.05;2.90;;;;;;;;;;5056777;28;20090;-77
2023/06/05 00:50:01;;;;;;;3.58;2.38;;;;;;;;;;5062669;28;20048;-77
2023/06/05 00:52:28;;;;;;;4.57;2.88;;;;;;;;;;5059754;28;20063;-77
2023/06/05 00:54:54;;;;;;;4.45;2.90;;;;;;;;;;5061626;28;20055;-79
2023/06/05 00:57:24;;;;;;;2.80;2.40;;;;;;;;;;5064068;28;20058;-77
2023/06/05 00:59:50;;;;;;;5.13;2.30;;;;;;;;;;5062522;28;20044;-78
2023/06/05 01:02:16;;;;;;;2.88;2.30;;;;;;;;;;5080173;28;20140;-78
2023/06/05 01:04:46;;;;;;;3.47;2.65;;;;;;;;;;5061113;28;20503;-78
2023/06/05 01:07:14;;;;;;;2.30;2.10;;;;;;;;;;5060186;28;20108;-77
2023/06/05 01:09:40;;;;;;;2.90;1.98;;;;;;;;;;5062495;28;20455;-78
2023/06/05 01:12:19;;;;;;;4.65;2.25;;;;;;;;;;5060026;28;20039;-77
2023/06/05 01:14:48;;;;;;;5.43;2.03;;;;;;;;;;5064089;28;20083;-78
2023/06/05 01:17:18;;;;;;;4.47;2.38;;;;;;;;;;5061430;28;20132;-79
2023/06/05 01:19:45;;;;;;;3.28;2.47;;;;;;;;;;5062262;28;20143;-78
2023/06/05 01:22:12;;;;;;;2.78;2.15;;;;;;;;;;5045864;28;20037;-77
2023/06/05 01:24:40;;;;;;;3.55;2.33;;;;;;;;;;5060474;28;21462;-78
2023/06/05 01:27:15;;;;;;;6.15;2.40;;;;;;;;;;5058368;28;20044;-78
2023/06/05 01:29:54;;;;;;;3.35;2.92;;;;;;;;;;5055968;28;20527;-78
2023/06/05 01:32:24;;;;;;;2.92;2.28;;;;;;;;;;5058566;28;20043;-78
2023/06/05 01:34:53;;;;;;;2.72;2.17;;;;;;;;;;5064011;28;20040;-78
2023/06/05 01:37:24;;;;;;;4.35;2.00;;;;;;;;;;5066907;28;20157;-78
2023/06/05 01:39:51;;;;;;;2.63;2.30;;;;;;;;;;5084021;28;20132;-78
2023/06/05 01:42:18;;;;;;;2.85;2.30;;;;;;;;;;5068429;28;20056;-77
2023/06/05 01:44:45;;;;;;;3.13;2.40;;;;;;;;;;5064724;28;20197;-79
2023/06/05 01:47:12;;;;;;;2.75;2.20;;;;;;;;;;5075978;28;20044;-78
2023/06/05 01:49:38;;;;;;;5.28;2.58;;;;;;;;;;5040439;28;20048;-78
2023/06/05 01:52:05;;;;;;;2.60;2.40;;;;;;;;;;5062297;28;20052;-77
2023/06/05 01:54:33;;;;;;;2.80;2.40;;;;;;;;;;5032774;28;20096;-77
2023/06/05 01:57:00;;;;;;;3.22;2.13;;;;;;;;;;5065974;28;20462;-77
2023/06/05 01:59:26;;;;;;;3.50;2.05;;;;;;;;;;5064578;28;20071;-78
2023/06/05 02:01:52;;;;;;;2.92;1.90;;;;;;;;;;5063594;28;21053;-78
2023/06/05 02:04:19;;;;;;;2.97;2.45;;;;;;;;;;5062673;28;20183;-78
2023/06/05 02:06:46;;;;;;;3.80;2.08;;;;;;;;;;5064894;28;20044;-78
2023/06/05 02:09:13;;;;;;;4.47;2.30;;;;;;;;;;5065184;28;20044;-78
2023/06/05 02:11:39;;;;;;;5.85;2.65;;;;;;;;;;5064591;28;20803;-77
2023/06/05 02:14:12;;;;;;;3.22;2.50;;;;;;;;;;5065567;28;20079;-77
2023/06/05 02:16:39;;;;;;;2.72;2.13;;;;;;;;;;5064698;28;20051;-78
2023/06/05 02:19:06;;;;;;;3.38;2.08;;;;;;;;;;5061608;28;20052;-78
2023/06/05 02:21:33;;;;;;;2.53;2.22;;;;;;;;;;5066553;28;21244;-78
2023/06/05 02:24:00;;;;;;;4.72;2.30;;;;;;;;;;5061090;28;20157;-78
2023/06/05 02:26:27;;;;;;;2.85;2.13;;;;;;;;;;5062107;28;20043;-78
2023/06/05 02:28:53;;;;;;;2.92;2.15;;;;;;;;;;5059068;28;20078;-78
2023/06/05 02:31:28;;;;;;;3.22;2.33;;;;;;;;;;5063084;28;20056;-78
2023/06/05 02:33:55;;;;;;;3.78;2.03;;;;;;;;;;5063755;28;20047;-78
2023/06/05 02:36:25;;;;;;;5.35;2.70;;;;;;;;;;5059458;28;20133;-77
2023/06/05 02:38:52;;;;;;;2.65;2.15;;;;;;;;;;5063891;28;20044;-78
2023/06/05 02:41:18;;;;;;;6.70;2.58;;;;;;;;;;5062287;28;20051;-78
2023/06/05 02:43:44;;;;;;;3.47;2.35;;;;;;;;;;5056379;28;20055;-78
2023/06/05 02:46:11;;;;;;;2.45;1.90;;;;;;;;;;5061571;28;20040;-78
2023/06/05 02:48:37;;;;;;;3.03;1.95;;;;;;;;;;5060771;28;20066;-78
2023/06/05 02:51:03;;;;;;;2.92;2.30;;;;;;;;;;5060702;28;20769;-77
2023/06/05 02:53:30;;;;;;;7.40;2.50;;;;;;;;;;5059522;28;20058;-77
2023/06/05 02:55:59;;;;;;;2.75;2.22;;;;;;;;;;5060977;28;20047;-77
2023/06/05 02:58:25;;;;;;;6.40;2.40;;;;;;;;;;5061161;28;20044;-78
2023/06/05 03:00:51;;;;;;;4.07;2.20;;;;;;;;;;5060939;28;20032;-78
2023/06/05 03:03:18;;;;;;;2.60;2.38;;;;;;;;;;5073279;28;20503;-76
2023/06/05 03:05:44;;;;;;;3.70;2.47;;;;;;;;;;5063246;28;20043;-78
2023/06/05 03:08:10;;;;;;;2.63;1.83;;;;;;;;;;5062818;28;20163;-78
2023/06/05 03:10:36;;;;;;;3.00;2.25;;;;;;;;;;5063610;28;20071;-78
2023/06/05 03:13:03;;;;;;;3.38;2.30;;;;;;;;;;5071328;28;20085;-77
2023/06/05 03:15:29;;;;;;;2.90;2.30;;;;;;;;;;5079212;28;20039;-78
2023/06/05 03:17:55;;;;;;;2.80;2.30;;;;;;;;;;5077435;28;20046;-78
2023/06/05 03:20:22;;;;;;;3.00;2.38;;;;;;;;;;5061704;28;20123;-77
2023/06/05 03:22:48;;;;;;;3.38;2.58;;;;;;;;;;5078837;28;20048;-78
2023/06/05 03:25:14;;;;;;;4.53;2.80;;;;;;;;;;5077076;28;20063;-78
2023/06/05 03:27:41;;;;;;;2.72;2.53;;;;;;;;;;5067230;28;20220;-77
2023/06/05 03:30:08;;;;;;;3.00;2.65;;;;;;;;;;5068773;28;20055;-77
2023/06/05 03:32:34;;;;;;;3.90;2.58;;;;;;;;;;5065232;28;20067;-77
2023/06/05 03:35:00;;;;;;;4.70;2.40;;;;;;;;;;5060635;28;20056;-77
2023/06/05 03:37:27;;;;;;;4.05;3.45;;;;;;;;;;5059028;28;20063;-74
2023/06/05 03:39:53;;;;;;;3.15;2.10;;;;;;;;;;5059778;28;20818;-74
2023/06/05 03:42:19;;;;;;;3.80;2.38;;;;;;;;;;5063839;28;20125;-74
2023/06/05 03:44:45;;;;;;;3.42;2.47;;;;;;;;;;5057682;28;20515;-74
2023/06/05 03:47:14;;;;;;;4.32;2.70;;;;;;;;;;5060856;28;20035;-74
2023/06/05 03:49:45;;;;;;;2.55;2.22;;;;;;;;;;5058532;28;20607;-74
2023/06/05 03:52:14;;;;;;;3.40;2.40;;;;;;;;;;5072497;28;20044;-74
2023/06/05 03:54:40;;;;;;;3.97;2.30;;;;;;;;;;5062404;28;20066;-73
2023/06/05 03:57:12;;;;;;;4.03;2.65;;;;;;;;;;5040340;28;20047;-74
2023/06/05 03:59:38;;;;;;;5.85;2.38;;;;;;;;;;5057936;28;20047;-74
2023/06/05 04:02:06;;;;;;;5.70;2.40;;;;;;;;;;5060469;28;20036;-73
2023/06/05 04:04:32;;;;;;;3.60;2.42;;;;;;;;;;5059181;28;20113;-73
2023/06/05 04:06:58;;;;;;;2.40;2.20;;;;;;;;;;5058971;28;20127;-74
2023/06/05 04:09:25;;;;;;;4.70;2.22;;;;;;;;;;5061223;28;20097;-74
2023/06/05 04:11:51;;;;;;;3.60;2.08;;;;;;;;;;5060971;28;20496;-74
2023/06/05 04:14:17;;;;;;;2.55;2.25;;;;;;;;;;5065119;28;20037;-73
2023/06/05 04:16:43;;;;;;;3.63;2.20;;;;;;;;;;5074110;28;20048;-74
2023/06/05 04:19:10;;;;;;;2.72;2.35;;;;;;;;;;5062914;28;20120;-73
2023/06/05 04:21:37;;;;;;;2.30;2.10;;;;;;;;;;5062367;28;20043;-74
2023/06/05 04:24:08;;;;;;;5.05;2.40;;;;;;;;;;5062569;28;20054;-74
2023/06/05 04:26:35;;;;;;;3.47;2.22;;;;;;;;;;5059588;28;20067;-74
2023/06/05 04:29:02;;;;;;;3.05;2.63;;;;;;;;;;5062838;28;20043;-74
2023/06/05 04:31:32;;;;;;;3.08;2.28;;;;;;;;;;5063077;28;20048;-74
2023/06/05 04:33:58;;;;;;;4.10;2.40;;;;;;;;;;5079325;28;20043;-74
2023/06/05 04:36:26;;;;;;;3.00;2.22;;;;;;;;;;5063901;28;21208;-74
2023/06/05 04:38:52;;;;;;;6.47;3.33;;;;;;;;;;5060858;28;20106;-74
2023/06/05 04:41:18;;;;;;;3.05;2.10;;;;;;;;;;5061054;28;21023;-74
2023/06/05 04:43:44;;;;;;;6.22;2.30;;;;;;;;;;5052991;28;20079;-74
2023/06/05 04:46:10;;;;;;;2.70;2.17;;;;;;;;;;5057781;28;20454;-75
2023/06/05 04:48:36;;;;;;;3.97;1.95;;;;;;;;;;5058247;28;20108;-74
2023/06/05 04:51:03;;;;;;;2.75;2.22;;;;;;;;;;5041756;28;20090;-74
2023/06/05 04:53:30;;;;;;;3.35;1.90;;;;;;;;;;5055311;28;20048;-74
2023/06/05 04:56:01;;;;;;;3.65;2.10;;;;;;;;;;5057128;28;20093;-74
2023/06/05 04:58:27;;;;;;;3.47;1.90;;;;;;;;;;5062722;28;20547;-75
2023/06/05 05:00:53;;;;;;;1.90;1.80;;;;;;;;;;5061822;28;20040;-74
2023/06/05 05:03:20;;;;;;;4.35;2.13;;;;;;;;;;5059624;28;20063;-74
2023/06/05 05:05:46;;;;;;;3.92;2.42;;;;;;;;;;5060130;28;20048;-75
2023/06/05 05:08:12;;;;;;;2.53;2.20;;;;;;;;;;5065117;28;20051;-75
2023/06/05 05:10:38;;;;;;;2.78;1.60;;;;;;;;;;5064139;28;20914;-74
2023/06/05 05:13:04;;;;;;;2.80;2.22;;;;;;;;;;5063650;28;20073;-74
2023/06/05 05:15:31;;;;;;;2.83;1.88;;;;;;;;;;5063838;28;20040;-74
2023/06/05 05:17:57;;;;;;;3.50;2.00;;;;;;;;;;5061665;28;20044;-75
2023/06/05 05:20:26;;;;;;;3.75;1.90;;;;;;;;;;5062711;28;20051;-74
2023/06/05 05:22:52;;;;;;;2.33;2.13;;;;;;;;;;5062535;28;20040;-74
2023/06/05 05:25:18;;;;;;;3.25;2.30;;;;;;;;;;5062764;28;20047;-74
2023/06/05 05:27:44;;;;;;;2.33;2.10;;;;;;;;;;5060305;28;20286;-75
2023/06/05 05:30:11;;;;;;;3.75;2.40;;;;;;;;;;5069175;28;20170;-75
2023/06/05 05:32:37;;;;;;;3.42;2.17;;;;;;;;;;5067336;28;20142;-74
2023/06/05 05:35:03;;;;;;;2.08;1.70;;;;;;;;;;5069696;28;20051;-74
2023/06/05 05:37:30;;;;;;;5.70;1.90;;;;;;;;;;5062422;28;20595;-75
2023/06/05 05:39:56;;;;;;;4.25;1.90;;;;;;;;;;5065898;28;20071;-74
2023/06/05 05:42:22;;;;;;;2.10;1.88;;;;;;;;;;5067706;28;20158;-75
2023/06/05 05:44:48;;;;;;;2.13;1.95;;;;;;;;;;5066854;28;20044;-74
2023/06/05 05:47:14;;;;;;;3.35;2.42;;;;;;;;;;5045289;28;20453;-74
2023/06/05 05:49:41;;;;;;;3.28;1.92;;;;;;;;;;5066959;28;20723;-74
2023/06/05 05:52:07;;;;;;;2.38;1.98;;;;;;;;;;5062776;28;20146;-75
2023/06/05 05:54:33;;;;;;;3.33;1.70;;;;;;;;;;5064509;28;20056;-74
2023/06/05 05:56:59;;;;;;;2.10;1.52;;;;;;;;;;5062331;28;20043;-75
2023/06/05 05:59:25;;;;;;;1.58;1.48;;;;;;;;;;5067476;28;20120;-74
2023/06/05 06:01:52;;;;;;;1.48;1.38;;;;;;;;;;5082927;27;20062;-75
2023/06/05 06:04:18;;;;;;;1.70;1.60;;;;;;;;;;5067006;28;20539;-75
2023/06/05 06:06:47;;;;;;;3.72;1.55;;;;;;;;;;5067426;28;20623;-75
2023/06/05 06:09:14;;;;;;;2.35;1.60;;;;;;;;;;5068703;28;20040;-74
2023/06/05 06:11:41;;;;;;;2.05;1.60;;;;;;;;;;5069535;28;20508;-75
2023/06/05 06:14:09;;;;;;;2.03;1.50;;;;;;;;;;5050236;28;21711;-75
2023/06/05 06:16:36;;;;;;;3.28;1.50;;;;;;;;;;5069506;28;20496;-75
2023/06/05 06:19:03;;;;;;;4.68;1.73;;;;;;;;;;5067013;28;20052;-76
2023/06/05 06:21:29;;;;;;;1.90;1.42;;;;;;;;;;5067679;28;20055;-75
2023/06/05 06:23:57;;;;;;;3.53;1.35;;;;;;;;;;5069991;28;20040;-75
2023/06/05 06:26:23;;;;;;;1.83;1.73;;;;;;;;;;5070399;28;20485;-75
2023/06/05 06:28:49;;;;;;;1.73;1.63;;;;;;;;;;5066809;28;20047;-75
2023/06/05 06:31:15;;;;;;;2.70;1.70;;;;;;;;;;5051292;28;20116;-75
2023/06/05 06:33:41;;;;;;;2.65;1.90;;;;;;;;;;5067349;28;20052;-75
2023/06/05 06:36:08;;;;;;;3.58;1.80;;;;;;;;;;5065104;28;20090;-75
2023/06/05 06:38:34;;;;;;;1.63;1.52;;;;;;;;;;5063628;28;20590;-74
2023/06/05 06:41:00;;;;;;;4.07;1.90;;;;;;;;;;5064305;28;20085;-74
2023/06/05 06:43:26;;;;;;;3.22;1.63;;;;;;;;;;5067357;28;20626;-75
2023/06/05 06:45:53;;;;;;;1.52;1.40;;;;;;;;;;5068919;28;20048;-75
2023/06/05 06:48:22;;;;;;;3.67;1.90;;;;;;;;;;5078571;28;20047;-74
2023/06/05 06:50:49;;;;;;;2.40;1.35;;;;;;;;;;5067205;28;20089;-74
2023/06/05 06:53:15;;;;;;;2.47;1.50;;;;;;;;;;5045497;28;20082;-75
2023/06/05 06:55:41;;;;;;;2.10;1.90;;;;;;;;;;5065890;28;20083;-75
2023/06/05 06:58:07;;;;;;;2.95;1.58;;;;;;;;;;5064833;28;20089;-74
2023/06/05 07:00:33;;;;;;;1.98;1.80;;;;;;;;;;5064812;28;21341;-74
2023/06/05 07:03:00;;;;;;;2.58;2.00;;;;;;;;;;5067152;28;20054;-74
2023/06/05 07:05:26;;;;;;;2.40;1.52;;;;;;;;;;5048190;28;20998;-74
2023/06/05 07:07:52;;;;;;;2.30;1.40;;;;;;;;;;5066678;28;20040;-74
2023/06/05 07:10:18;;;;;;;1.77;1.50;;;;;;;;;;5067771;28;20062;-75
2023/06/05 07:12:44;;;;;;;3.05;1.42;;;;;;;;;;5066283;28;21922;-73
2023/06/05 07:15:10;;;;;;;1.92;1.60;;;;;;;;;;5064539;28;20043;-76
2023/06/05 07:17:36;;;;;;;2.80;1.73;;;;;;;;;;5083040;28;21462;-74
2023/06/05 07:20:05;;;;;;;2.58;1.67;;;;;;;;;;5073962;28;20496;-74
2023/06/05 07:22:31;;;;;;;4.38;1.75;;;;;;;;;;5077447;28;20103;-74
2023/06/05 07:24:57;;;;;;;4.07;1.92;;;;;;;;;;5072015;28;20036;-74
2023/06/05 07:27:24;;;;;;;2.75;1.58;;;;;;;;;;5069827;28;20040;-75
2023/06/05 07:29:53;;;;;;;1.58;1.48;;;;;;;;;;5046638;28;20052;-74
2023/06/05 07:32:20;;;;;;;2.60;1.80;;;;;;;;;;5050568;28;20056;-74
2023/06/05 07:34:47;;;;;;;5.03;1.60;;;;;;;;;;5067982;28;20040;-74
2023/06/05 07:37:13;;;;;;;4.00;1.63;;;;;;;;;;5068433;28;20048;-74
2023/06/05 07:39:39;;;;;;;2.88;1.83;;;;;;;;;;5065284;28;20108;-74
2023/06/05 07:42:06;;;;;;;3.25;1.90;;;;;;;;;;5069577;28;20484;-74
2023/06/05 07:44:32;;;;;;;2.92;1.77;;;;;;;;;;5052468;28;20036;-74
2023/06/05 07:46:58;;;;;;;1.70;1.60;;;;;;;;;;5063911;28;20051;-74
2023/06/05 07:49:24;;;;;;;2.65;1.70;;;;;;;;;;5067137;28;20048;-74
2023/06/05 07:51:51;;;;;;;3.47;1.80;;;;;;;;;;5084607;28;20174;-74
2023/06/05 07:54:18;;;;;;;2.53;1.60;;;;;;;;;;5064809;28;20040;-75
2023/06/05 07:56:48;;;;;;;4.43;1.80;;;;;;;;;;5067232;28;20652;-75
2023/06/05 07:59:16;;;;;;;7.57;1.70;;;;;;;;;;5065009;28;20400;-76
2023/06/05 08:01:43;;;;;;;5.30;1.70;;;;;;;;;;5066921;28;20559;-75
2023/06/05 08:04:12;;;;;;;4.10;1.50;;;;;;;;;;5067967;28;20063;-75
2023/06/05 08:06:38;;;;;;;2.72;1.80;;;;;;;;;;5068271;28;20083;-75
2023/06/05 08:09:10;;;;;;;3.25;2.40;;;;;;;;;;5067350;28;20048;-75
2023/06/05 08:11:41;;;;;;;3.85;1.75;;;;;;;;;;5064948;28;20446;-74
2023/06/05 08:14:08;;;;;;;1.95;1.42;;;;;;;;;;5063088;28;20697;-74
2023/06/05 08:16:34;;;;;;;2.05;1.45;;;;;;;;;;5065461;28;20629;-75
2023/06/05 08:19:01;;;;;;;3.00;1.70;;;;;;;;;;5065822;28;21412;-76
2023/06/05 08:21:27;;;;;;;2.05;1.48;;;;;;;;;;5065256;28;20055;-79
2023/06/05 08:23:53;;;;;;;3.25;1.65;;;;;;;;;;5062361;28;20040;-74
2023/06/05 08:26:21;;;;;;;2.95;1.70;;;;;;;;;;5060146;28;20603;-72
2023/06/05 08:28:48;;;;;;;3.17;1.80;;;;;;;;;;5074504;27;20438;-73
2023/06/05 08:31:14;;;;;;;2.88;1.42;;;;;;;;;;5042415;28;20044;-72
2023/06/05 08:33:42;;;;;;;2.30;2.10;;;;;;;;;;5043229;28;20670;-72
2023/06/05 08:36:08;;;;;;;2.67;1.73;;;;;;;;;;5060656;28;20067;-72
2023/06/05 08:38:35;;;;;;;2.70;1.83;;;;;;;;;;5064050;28;20445;-72
2023/06/05 08:41:07;;;;;;;2.70;1.85;;;;;;;;;;5061821;28;20048;-73
2023/06/05 08:43:36;;;;;;;5.32;2.00;;;;;;;;;;5059202;28;20471;-73
2023/06/05 08:46:02;;;;;;;2.60;1.90;;;;;;;;;;5060357;28;20072;-73
2023/06/05 08:48:31;;;;;;;3.08;1.63;;;;;;;;;;5059932;28;20631;-72
2023/06/05 08:50:59;;;;;;;2.90;1.90;;;;;;;;;;5062210;28;20036;-72
2023/06/05 08:53:27;;;;;;;4.93;1.80;;;;;;;;;;5057739;28;21685;-72
2023/06/05 08:55:55;;;;;;;3.80;1.63;;;;;;;;;;5061755;28;21492;-72
2023/06/05 08:58:22;;;;;;;4.28;1.77;;;;;;;;;;5058537;28;20055;-72
2023/06/05 09:00:49;;;;;;;3.03;1.77;;;;;;;;;;5060898;28;20086;-72
2023/06/05 09:03:18;;;;;;;2.45;1.60;;;;;;;;;;5062839;28;20881;-72
2023/06/05 09:05:44;;;;;;;2.50;1.80;;;;;;;;;;5064584;28;20713;-72
2023/06/05 09:08:10;;;;;;;2.38;1.83;;;;;;;;;;5056384;28;20138;-72
2023/06/05 09:10:36;;;;;;;2.17;1.60;;;;;;;;;;5063461;28;21265;-72
2023/06/05 09:13:03;;;;;;;2.42;1.70;;;;;;;;;;5063149;28;20191;-72
2023/06/05 09:15:31;;;;;;;2.53;1.80;;;;;;;;;;5062431;28;20452;-72
2023/06/05 09:18:04;;;;;;;4.50;1.80;;;;;;;;;;5065569;28;20048;-73
2023/06/05 09:20:34;;;;;;;3.53;1.70;;;;;;;;;;5057892;28;20460;-72
2023/06/05 09:23:00;;;;;;;2.28;2.08;;;;;;;;;;5063239;28;20135;-72
2023/06/05 09:25:28;;;;;;;2.40;1.70;;;;;;;;;;5064507;28;20044;-72
2023/06/05 09:28:07;;;;;;;2.17;1.60;;;;;;;;;;5063212;28;20122;-72
2023/06/05 09:30:33;;;;;;;2.42;1.70;;;;;;;;;;5065145;28;20194;-72
2023/06/05 09:33:09;;;;;;;2.28;1.63;;;;;;;;;;5079499;28;20040;-72
2023/06/05 09:35:38;;;;;;;3.08;1.73;;;;;;;;;;5063305;28;20377;-72
2023/06/05 09:38:16;;;;;;;4.35;1.83;;;;;;;;;;5065129;28;20063;-72
2023/06/05 09:40:42;;;;;;;3.75;2.08;;;;;;;;;;5064679;28;20079;-72
2023/06/05 09:43:22;;;;;;;1.80;1.55;;;;;;;;;;5057573;28;20504;-72
2023/06/05 09:45:48;;;;;;;2.95;1.83;;;;;;;;;;5062106;28;20448;-72
2023/06/05 09:48:15;;;;;;;2.40;1.80;;;;;;;;;;5063751;28;20052;-72
2023/06/05 09:50:42;;;;;;;2.00;1.50;;;;;;;;;;5063060;28;20060;-72
2023/06/05 09:53:13;;;;;;;2.00;1.80;;;;;;;;;;5066241;28;20052;-71
2023/06/05 09:55:39;;;;;;;3.60;2.00;;;;;;;;;;5057243;28;21801;-72
2023/06/05 09:58:10;;;;;;;2.28;1.60;;;;;;;;;;5061906;28;20059;-73
2023/06/05 10:00:38;;;;;;;2.75;2.03;;;;;;;;;;5073061;28;20197;-74
2023/06/05 10:03:07;;;;;;;5.32;2.08;;;;;;;;;;5062328;28;20307;-74
2023/06/05 10:05:35;;;;;;;4.28;2.00;;;;;;;;;;5059814;28;20062;-74
2023/06/05 10:08:02;;;;;;;3.17;1.67;;;;;;;;;;5061681;28;20053;-74
2023/06/05 10:10:30;;;;;;;6.22;1.92;;;;;;;;;;5057778;28;20154;-73
2023/06/05 10:12:57;;;;;;;2.05;1.67;;;;;;;;;;5061089;28;20221;-74
2023/06/05 10:15:24;;;;;;;2.42;1.60;;;;;;;;;;5065147;28;20090;-74
2023/06/05 10:17:51;;;;;;;4.57;1.90;;;;;;;;;;5065631;28;20174;-74
2023/06/05 10:20:17;;;;;;;2.42;1.85;;;;;;;;;;5062159;28;20040;-74
2023/06/05 10:22:44;;;;;;;5.43;2.08;;;;;;;;;;5061427;28;20044;-74
2023/06/05 10:25:12;;;;;;;4.18;1.85;;;;;;;;;;5064073;28;20043;-74
2023/06/05 10:27:57;;;;;;;3.15;2.15;;;;;;;;;;5063790;28;20048;-73
2023/06/05 10:30:46;;;;;;;1.60;1.50;;;;;;;;;;5058213;28;20048;-72
2023/06/05 10:33:32;;;;;;;1.67;1.40;;;;;;;;;;5025116;28;20051;-73
2023/06/05 10:36:18;;;;;;;2.72;1.67;;;;;;;;;;5062266;28;20122;-74
2023/06/05 10:38:45;;;;;;;1.65;1.50;;;;;;;;;;5060205;28;20240;-73
2023/06/05 10:41:11;;;;;;;2.47;1.83;;;;;;;;;;5062673;28;20692;-73
2023/06/05 10:43:37;;;;;;;5.30;2.22;;;;;;;;;;5044309;28;20040;-74
2023/06/05 10:46:27;;;;;;;4.57;1.60;;;;;;;;;;5063517;28;20040;-73
2023/06/05 10:49:10;;;;;;;2.05;1.85;;;;;;;;;;5065816;28;20105;-73
2023/06/05 10:51:40;;;;;;;2.22;1.60;;;;;;;;;;5065704;28;21033;-73
2023/06/05 10:54:29;;;;;;;1.90;1.80;;;;;;;;;;5055458;28;20135;-73
2023/06/05 10:56:57;;;;;;;3.75;1.90;;;;;;;;;;5058994;28;20048;-74
2023/06/05 10:59:25;;;;;;;5.63;1.60;;;;;;;;;;5041388;28;20102;-74
2023/06/05 11:02:19;;;;;;;3.40;1.80;;;;;;;;;;5076894;28;20039;-75
2023/06/05 11:04:48;;;;;;;2.85;1.95;;;;;;;;;;5081985;28;20755;-73
2023/06/05 11:07:24;;;;;;;1.90;1.70;;;;;;;;;;5082609;28;20515;-74
2023/06/05 11:10:05;;;;;;;2.67;1.60;;;;;;;;;;5053575;28;20052;-74
2023/06/05 11:12:40;;;;;;;2.65;1.90;;;;;;;;;;5068910;28;20142;-75
2023/06/05 11:15:07;;;;;;;2.47;1.60;;;;;;;;;;5065673;28;20044;-74
2023/06/05 11:17:41;;;;;;;2.25;1.60;;;;;;;;;;5063379;28;20086;-74
2023/06/05 11:20:26;;;;;;;3.60;1.67;;;;;;;;;;5062623;28;20051;-74
2023/06/05 11:22:52;;;;;;;1.98;1.63;;;;;;;;;;5064130;28;20047;-75
2023/06/05 11:25:21;;;;;;;2.05;1.80;;;;;;;;;;5067854;28;20084;-76
2023/06/05 11:27:47;;;;;;;6.35;1.85;;;;;;;;;;5067785;28;22105;-74
2023/06/05 11:30:13;;;;;;;1.75;1.58;;;;;;;;;;5066173;28;20052;-75
2023/06/05 11:32:39;;;;;;;1.55;1.45;;;;;;;;;;5065242;28;20047;-75
2023/06/05 11:35:08;;;;;;;4.18;1.92;;;;;;;;;;5067162;28;20067;-75
2023/06/05 11:37:34;;;;;;;2.40;1.60;;;;;;;;;;5068230;28;20094;-75
2023/06/05 11:40:10;;;;;;;2.58;2.05;;;;;;;;;;5047571;28;20080;-74
2023/06/05 11:42:38;;;;;;;3.15;1.77;;;;;;;;;;5067805;28;20044;-75
2023/06/05 11:45:14;;;;;;;3.78;2.03;;;;;;;;;;5068601;28;20048;-74
2023/06/05 11:47:40;;;;;;;3.50;1.80;;;;;;;;;;5069314;28;20053;-74
2023/06/05 11:50:10;;;;;;;2.35;1.77;;;;;;;;;;5068033;28;20047;-74
2023/06/05 11:52:36;;;;;;;2.50;1.70;;;;;;;;;;5065988;28;20040;-75
2023/06/05 11:55:14;;;;;;;4.28;1.80;;;;;;;;;;5050325;28;20043;-75
2023/06/05 11:57:44;;;;;;;2.10;1.90;;;;;;;;;;5066983;28;20137;-74
2023/06/05 12:00:11;;;;;;;1.40;1.30;;;;;;;;;;5061485;28;21994;-74
2023/06/05 12:02:42;;;;;;;3.25;1.83;;;;;;;;;;5061942;28;20047;-75
2023/06/05 12:05:11;;;;;;;2.45;1.60;;;;;;;;;;5061631;28;20048;-75
2023/06/05 12:07:39;;;;;;;2.72;1.98;;;;;;;;;;5063129;28;20079;-74
2023/06/05 12:10:06;;;;;;;3.30;1.88;;;;;;;;;;5061090;28;20081;-75
2023/06/05 12:12:33;;;;;;;2.45;1.75;;;;;;;;;;5060551;28;20044;-75
2023/06/05 12:15:14;;;;;;;2.65;1.92;;;;;;;;;;5043436;28;20430;-75
2023/06/05 12:17:40;;;;;;;2.65;2.00;;;;;;;;;;5061513;28;20048;-74
2023/06/05 12:20:08;;;;;;;2.50;1.80;;;;;;;;;;5059061;28;20031;-75
2023/06/05 12:22:35;;;;;;;4.70;1.73;;;;;;;;;;5060634;28;20573;-74
2023/06/05 12:25:17;;;;;;;3.78;1.77;;;;;;;;;;5060132;28;20044;-75
2023/06/05 12:27:45;;;;;;;5.40;2.10;;;;;;;;;;5060779;28;20096;-75
2023/06/05 12:30:11;;;;;;;2.97;2.17;;;;;;;;;;5060095;28;20139;-74
2023/06/05 12:32:39;;;;;;;2.75;2.00;;;;;;;;;;5058011;28;20036;-75
2023/06/05 12:35:05;;;;;;;2.55;1.80;;;;;;;;;;5061205;28;20122;-75
2023/06/05 12:37:34;;;;;;;5.40;1.95;;;;;;;;;;5062424;28;20610;-75
2023/06/05 12:40:00;;;;;;;2.15;1.85;;;;;;;;;;5046799;28;20048;-75
2023/06/05 12:42:27;;;;;;;3.63;2.30;;;;;;;;;;5062358;28;20095;-74
2023/06/05 12:44:54;;;;;;;5.03;2.08;;;;;;;;;;5063658;28;20171;-75
2023/06/05 12:47:20;;;;;;;3.25;2.10;;;;;;;;;;5060956;28;20158;-75
2023/06/05 12:49:46;;;;;;;2.58;1.92;;;;;;;;;;5041243;28;20044;-75
2023/06/05 12:52:13;;;;;;;4.22;2.42;;;;;;;;;;5062349;28;20059;-75
2023/06/05 12:54:39;;;;;;;4.22;2.33;;;;;;;;;;5062953;28;20159;-76
2023/06/05 12:57:07;;;;;;;2.63;2.10;;;;;;;;;;5063551;28;20682;-75
2023/06/05 12:59:33;;;;;;;3.90;2.15;;;;;;;;;;5058513;28;20514;-75
2023/06/05 13:01:59;;;;;;;4.05;1.95;;;;;;;;;;5041054;28;20068;-75
2023/06/05 13:04:26;;;;;;;5.07;2.15;;;;;;;;;;5078282;28;20071;-76
2023/06/05 13:06:54;;;;;;;2.70;1.90;;;;;;;;;;5061215;28;20541;-75
2023/06/05 13:09:21;;;;;;;2.58;1.90;;;;;;;;;;5060297;28;20598;-74
2023/06/05 13:11:47;;;;;;;6.35;2.20;;;;;;;;;;5061682;28;20039;-75
2023/06/05 13:14:13;;;;;;;3.22;1.92;;;;;;;;;;5072744;28;20144;-75
2023/06/05 13:16:39;;;;;;;3.72;2.30;;;;;;;;;;5043255;28;20047;-76
2023/06/05 13:19:05;;;;;;;4.07;2.00;;;;;;;;;;5060212;28;20054;-76
2023/06/05 13:21:31;;;;;;;6.88;2.03;;;;;;;;;;5062036;28;20545;-75
2023/06/05 13:23:57;;;;;;;4.00;2.00;;;;;;;;;;5058995;28;20047;-75
2023/06/05 13:26:23;;;;;;;2.03;1.80;;;;;;;;;;5064094;28;20760;-75
2023/06/05 13:28:49;;;;;;;2.90;2.10;;;;;;;;;;5061668;28;20077;-76
2023/06/05 13:31:17;;;;;;;5.45;2.10;;;;;;;;;;5062784;28;20028;-75
2023/06/05 13:33:43;;;;;;;3.10;2.15;;;;;;;;;;5064105;28;21077;-75
2023/06/05 13:36:09;;;;;;;3.20;2.15;;;;;;;;;;5054769;28;20054;-78
2023/06/05 13:38:38;;;;;;;4.55;2.40;;;;;;;;;;5060547;28;20122;-78
2023/06/05 13:41:05;;;;;;;5.88;2.17;;;;;;;;;;5057834;28;20093;-78
2023/06/05 13:43:32;;;;;;;4.15;2.20;;;;;;;;;;5043297;28;20035;-78
2023/06/05 13:45:58;;;;;;;2.90;2.20;;;;;;;;;;5039627;28;20773;-77
2023/06/05 13:48:24;;;;;;;4.68;2.30;;;;;;;;;;5059069;28;20044;-78
2023/06/05 13:50:50;;;;;;;3.78;1.85;;;;;;;;;;5065190;28;22116;-78
2023/06/05 13:53:16;;;;;;;3.50;1.98;;;;;;;;;;5064016;28;20048;-78
2023/06/05 13:55:42;;;;;;;3.30;2.20;;;;;;;;;;5067030;28;20075;-78
2023/06/05 13:58:09;;;;;;;3.40;2.28;;;;;;;;;;5065383;28;20515;-78
2023/06/05 14:00:35;;;;;;;6.30;2.40;;;;;;;;;;5048818;28;20180;-77
2023/06/05 14:03:01;;;;;;;4.05;2.42;;;;;;;;;;5075590;28;20070;-77
2023/06/05 14:05:29;;;;;;;4.15;2.40;;;;;;;;;;5063762;28;20496;-77
2023/06/05 14:07:55;;;;;;;5.07;2.45;;;;;;;;;;5046481;28;20082;-77
2023/06/05 14:10:23;;;;;;;6.03;2.65;;;;;;;;;;5061145;28;20040;-77
2023/06/05 14:12:50;;;;;;;7.07;2.40;;;;;;;;;;5063505;28;20190;-77
2023/06/05 14:15:17;;;;;;;5.85;2.30;;;;;;;;;;5049137;28;20389;-77
2023/06/05 14:17:44;;;;;;;3.70;2.30;;;;;;;;;;5065556;28;20120;-77
2023/06/05 14:20:11;;;;;;;2.58;2.10;;;;;;;;;;5070511;28;20040;-74
2023/06/05 14:22:38;;;;;;;5.82;2.78;;;;;;;;;;5070169;28;20278;-74
2023/06/05 14:25:05;;;;;;;3.88;2.65;;;;;;;;;;5065217;28;20074;-74
2023/06/05 14:27:32;;;;;;;3.72;2.42;;;;;;;;;;5050142;28;20074;-74
2023/06/05 14:29:58;;;;;;;5.78;2.35;;;;;;;;;;5089742;28;20173;-74
2023/06/05 14:32:24;;;;;;;9.02;2.40;;;;;;;;;;5053348;28;20133;-74
2023/06/05 14:34:50;;;;;;;3.60;2.30;;;;;;;;;;5065509;28;20048;-74
2023/06/05 14:37:16;;;;;;;4.15;2.40;;;;;;;;;;5068852;28;22049;-74
2023/06/05 14:39:43;;;;;;;4.18;2.35;;;;;;;;;;5063603;28;20043;-73
2023/06/05 14:42:09;;;;;;;4.65;2.42;;;;;;;;;;5068210;28;20052;-73
2023/06/05 14:44:35;;;;;;;5.82;2.80;;;;;;;;;;5070466;28;20160;-73
2023/06/05 14:47:01;;;;;;;5.32;2.20;;;;;;;;;;5067603;28;20130;-72